createdAt,value
2019-01-02T00:00:41.905Z,3.93
2019-01-02T00:03:10.871Z,3.30
2019-01-02T00:05:40.654Z,1.70
2019-01-02T00:08:09.342Z,2.00
2019-01-02T00:10:38.420Z,1.60
2019-01-02T00:13:07.089Z,1.40
2019-01-02T00:15:36.911Z,1.50
2019-01-02T00:18:05.598Z,1.53
2019-01-02T00:20:34.290Z,1.10
2019-01-02T00:23:03.009Z,1.77
2019-01-02T00:25:31.642Z,1.40
2019-01-02T00:28:00.929Z,1.43
2019-01-02T00:30:29.670Z,1.80
2019-01-02T00:32:58.729Z,1.40
2019-01-02T00:35:27.422Z,1.30
2019-01-02T00:37:56.542Z,1.40
2019-01-02T00:40:25.189Z,1.57
2019-01-02T00:42:54.293Z,1.23
2019-01-02T00:45:23.494Z,1.50
2019-01-02T00:47:52.685Z,1.10
2019-01-02T00:50:21.366Z,1.33
2019-01-02T00:52:50.086Z,1.57
2019-01-02T00:55:19.017Z,1.33
2019-01-02T00:57:47.738Z,1.10
2019-01-02T01:00:22.101Z,1.50
2019-01-02T01:02:51.823Z,0.90
2019-01-02T01:05:20.653Z,1.27
2019-01-02T01:07:49.390Z,1.60
2019-01-02T01:10:18.360Z,1.47
2019-01-02T01:12:47.422Z,1.50
2019-01-02T01:15:16.396Z,1.20
2019-01-02T01:17:45.407Z,0.83
2019-01-02T01:20:16.501Z,1.30
2019-01-02T01:22:45.165Z,2.03
2019-01-02T01:25:13.819Z,1.37
2019-01-02T01:27:42.503Z,1.60
2019-01-02T01:30:11.544Z,1.53
2019-01-02T01:32:40.191Z,1.20
2019-01-02T01:35:10.941Z,1.60
2019-01-02T01:37:41.450Z,1.30
2019-01-02T01:40:10.977Z,1.63
2019-01-02T01:42:40.186Z,1.43
2019-01-02T01:45:09.925Z,2.47
2019-01-02T01:47:38.637Z,1.80
2019-01-02T01:50:08.153Z,1.40
2019-01-02T01:52:37.069Z,2.30
2019-01-02T01:55:05.958Z,2.47
2019-01-02T01:57:34.943Z,1.40
2019-01-02T02:00:03.929Z,2.00
2019-01-02T02:02:33.730Z,3.03
2019-01-02T02:05:02.502Z,2.00
2019-01-02T02:07:31.218Z,1.83
2019-01-02T02:10:01.288Z,1.60
2019-01-02T02:12:29.898Z,1.50
2019-01-02T02:14:58.642Z,2.27
2019-01-02T02:17:27.526Z,1.73
2019-01-02T02:19:56.159Z,2.23
2019-01-02T02:22:25.537Z,1.73
2019-01-02T02:24:54.250Z,1.40
2019-01-02T02:27:23.274Z,1.90
2019-01-02T02:29:52.429Z,1.33
2019-01-02T02:32:21.132Z,1.37
2019-01-02T02:34:49.801Z,1.53
2019-01-02T02:37:18.521Z,1.87
2019-01-02T02:39:47.182Z,1.97
2019-01-02T02:42:16.291Z,2.00
2019-01-02T02:44:45.393Z,1.57
2019-01-02T02:47:14.054Z,1.03
2019-01-02T02:49:42.741Z,1.77
2019-01-02T02:52:11.451Z,1.67
2019-01-02T02:54:40.105Z,1.73
2019-01-02T02:57:09.062Z,1.87
2019-01-02T02:59:37.678Z,1.90
2019-01-02T03:02:06.530Z,2.80
2019-01-02T03:04:35.421Z,2.87
2019-01-02T03:07:04.342Z,2.30
2019-01-02T03:09:32.997Z,1.90
2019-01-02T03:12:01.708Z,2.30
2019-01-02T03:14:30.389Z,1.73
2019-01-02T03:16:59.361Z,1.70
2019-01-02T03:19:28.351Z,3.00
2019-01-02T03:21:57.385Z,1.87
2019-01-02T03:24:26.496Z,2.40
2019-01-02T03:26:55.538Z,2.60
2019-01-02T03:29:24.407Z,1.67
2019-01-02T03:31:53.410Z,1.90
2019-01-02T03:34:22.315Z,2.37
2019-01-02T03:36:50.914Z,2.17
2019-01-02T03:39:23.501Z,2.40
2019-01-02T03:41:52.316Z,2.33
2019-01-02T03:44:20.989Z,2.00
2019-01-02T03:46:49.861Z,2.00
2019-01-02T03:49:18.517Z,2.00
2019-01-02T03:51:47.638Z,1.60
2019-01-02T03:54:16.468Z,1.70
2019-01-02T03:56:45.090Z,2.80
2019-01-02T03:59:13.954Z,2.10
2019-01-02T04:01:42.593Z,2.07
2019-01-02T04:04:11.237Z,2.30
2019-01-02T04:06:39.910Z,2.40
2019-01-02T04:09:10.341Z,2.37
2019-01-02T04:11:38.954Z,2.43
2019-01-02T04:14:08.486Z,2.33
2019-01-02T04:16:37.124Z,2.93
2019-01-02T04:19:05.740Z,2.23
2019-01-02T04:21:34.677Z,2.00
2019-01-02T04:24:03.301Z,2.27
2019-01-02T04:26:31.979Z,2.10
2019-01-02T04:29:00.590Z,2.70
2019-01-02T04:31:29.241Z,2.70
2019-01-02T04:33:57.817Z,2.47
2019-01-02T04:36:26.450Z,2.03
2019-01-02T04:38:55.362Z,2.50
2019-01-02T04:41:23.991Z,2.27
2019-01-02T04:43:52.694Z,2.27
2019-01-02T04:46:21.350Z,2.30
2019-01-02T04:48:49.937Z,2.43
2019-01-02T04:51:18.594Z,2.40
2019-01-02T04:53:47.167Z,2.73
2019-01-02T04:56:15.790Z,2.53
2019-01-02T04:58:44.661Z,2.60
2019-01-02T05:01:13.261Z,4.00
2019-01-02T05:03:41.845Z,2.87
2019-01-02T05:06:10.441Z,1.77
2019-01-02T05:08:39.123Z,2.40
2019-01-02T05:11:07.695Z,1.87
2019-01-02T05:13:36.333Z,3.93
2019-01-02T05:16:06.061Z,2.80
2019-01-02T05:18:34.673Z,2.20
2019-01-02T05:21:03.530Z,2.10
2019-01-02T05:23:33.167Z,2.43
2019-01-02T05:26:01.759Z,2.17
2019-01-02T05:28:30.353Z,2.37
2019-01-02T05:30:59.021Z,2.90
2019-01-02T05:33:27.618Z,3.10
2019-01-02T05:35:56.329Z,3.17
2019-01-02T05:38:25.241Z,2.67
2019-01-02T05:40:54.127Z,2.03
2019-01-02T05:43:23.086Z,2.63
2019-01-02T05:45:51.750Z,2.80
2019-01-02T05:48:20.326Z,3.30
2019-01-02T05:50:49.195Z,2.80
2019-01-02T05:53:17.805Z,3.07
2019-01-02T05:55:46.630Z,2.57
2019-01-02T05:58:15.319Z,2.10
2019-01-02T06:00:43.958Z,2.97
2019-01-02T06:03:12.541Z,2.23
2019-01-02T06:05:41.213Z,3.60
2019-01-02T06:08:09.824Z,2.30
2019-01-02T06:10:38.502Z,2.70
2019-01-02T06:13:07.118Z,2.80
2019-01-02T06:15:35.783Z,2.50
2019-01-02T06:18:04.462Z,2.23
2019-01-02T06:20:33.197Z,2.63
2019-01-02T06:23:01.836Z,3.10
2019-01-02T06:25:30.893Z,3.27
2019-01-02T06:27:59.781Z,2.90
2019-01-02T06:30:28.390Z,2.47
2019-01-02T06:32:56.978Z,2.57
2019-01-02T06:35:25.605Z,4.10
2019-01-02T06:37:54.255Z,3.27
2019-01-02T06:40:23.193Z,2.43
2019-01-02T06:42:51.853Z,3.93
2019-01-02T06:45:20.505Z,3.30
2019-01-02T06:47:49.086Z,3.33
2019-01-02T06:50:23.315Z,3.80
2019-01-02T06:52:51.998Z,3.33
2019-01-02T06:55:20.565Z,3.53
2019-01-02T06:57:49.210Z,3.60
2019-01-02T07:00:29.121Z,4.57
2019-01-02T07:02:58.191Z,3.27
2019-01-02T07:05:26.781Z,3.80
2019-01-02T07:07:55.480Z,4.60
2019-01-02T07:10:24.581Z,5.20
2019-01-02T07:12:53.250Z,5.17
2019-01-02T07:15:21.830Z,3.80
2019-01-02T07:17:50.457Z,3.70
2019-01-02T07:20:19.121Z,3.90
2019-01-02T07:22:47.799Z,3.40
2019-01-02T07:25:16.501Z,4.10
2019-01-02T07:27:45.157Z,4.50
2019-01-02T07:30:16.721Z,3.73
2019-01-02T07:32:45.461Z,3.27
2019-01-02T07:35:53.730Z,3.73
2019-01-02T07:38:53.105Z,3.80
2019-01-02T07:42:06.429Z,3.27
2019-01-02T07:44:51.883Z,3.53
2019-01-02T07:48:09.756Z,4.37
2019-01-02T07:51:22.678Z,3.90
2019-01-02T07:54:36.933Z,3.90
2019-01-02T07:57:30.315Z,4.23
2019-01-02T08:00:19.679Z,3.80
2019-01-02T08:03:24.423Z,3.50
2019-01-02T08:06:20.318Z,3.83
2019-01-02T08:09:20.698Z,4.03
2019-01-02T08:12:25.106Z,3.33
2019-01-02T08:15:34.122Z,3.63
2019-01-02T08:18:52.247Z,4.03
2019-01-02T08:22:06.754Z,3.90
2019-01-02T08:25:28.771Z,3.40
2019-01-02T08:28:34.762Z,3.57
2019-01-02T08:31:46.801Z,3.80
2019-01-02T08:34:39.954Z,3.90
2019-01-02T08:37:52.517Z,4.00
2019-01-02T08:41:01.654Z,3.57
2019-01-02T08:43:50.026Z,3.07
2019-01-02T08:46:57.350Z,3.73
2019-01-02T08:49:57.349Z,3.90
2019-01-02T08:53:07.567Z,3.77
2019-01-02T08:56:33.130Z,4.00
2019-01-02T09:00:01.088Z,3.67
2019-01-02T09:02:50.174Z,4.30
2019-01-02T09:05:52.698Z,4.53
2019-01-02T09:09:07.079Z,3.83
2019-01-02T09:12:37.955Z,3.77
2019-01-02T09:15:33.529Z,2.90
2019-01-02T09:18:26.905Z,4.23
2019-01-02T09:21:39.888Z,3.80
2019-01-02T09:24:56.277Z,3.63
2019-01-02T09:28:15.241Z,3.70
2019-01-02T09:31:30.114Z,3.50
2019-01-02T09:34:25.918Z,3.13
2019-01-02T09:37:47.651Z,3.60
2019-01-02T09:40:42.901Z,3.63
2019-01-02T09:43:43.571Z,2.60
2019-01-02T09:46:49.263Z,3.40
2019-01-02T09:49:32.465Z,4.60
2019-01-02T09:52:58.150Z,3.40
2019-01-02T09:55:53.786Z,3.17
2019-01-02T09:59:14.041Z,3.10
2019-01-02T10:02:11.557Z,3.80
2019-01-02T10:05:20.294Z,2.97
2019-01-02T10:08:11.245Z,3.43
2019-01-02T10:10:56.973Z,4.57
2019-01-02T10:13:56.857Z,3.93
2019-01-02T10:17:12.745Z,4.03
2019-01-02T10:19:52.288Z,3.47
2019-01-02T10:22:56.481Z,2.90
2019-01-02T10:25:58.493Z,2.60
2019-01-02T10:28:53.232Z,3.20
2019-01-02T10:32:05.621Z,3.20
2019-01-02T10:35:09.345Z,3.53
2019-01-02T10:38:01.977Z,3.10
2019-01-02T10:41:17.748Z,3.07
2019-01-02T10:44:19.861Z,3.10
2019-01-02T10:47:28.646Z,3.57
2019-01-02T10:50:26.608Z,4.30
2019-01-02T10:53:29.565Z,3.27
2019-01-02T10:56:23.357Z,3.23
2019-01-02T10:59:46.349Z,3.80
2019-01-02T11:02:52.174Z,3.37
2019-01-02T11:06:08.185Z,3.17
2019-01-02T11:09:04.828Z,3.50
2019-01-02T11:12:10.443Z,2.93
2019-01-02T11:15:07.934Z,3.47
2019-01-02T11:18:00.288Z,3.03
2019-01-02T11:21:05.766Z,4.17
2019-01-02T11:24:30.925Z,3.93
2019-01-02T11:27:55.154Z,3.90
2019-01-02T11:31:05.006Z,3.40
2019-01-02T11:33:56.266Z,3.50
2019-01-02T11:37:04.909Z,4.63
2019-01-02T11:40:05.851Z,4.47
2019-01-02T11:42:53.042Z,3.27
2019-01-02T11:45:21.725Z,3.97
2019-01-02T11:47:50.357Z,4.07
2019-01-02T11:50:18.950Z,3.50
2019-01-02T11:52:47.698Z,3.60
2019-01-02T11:55:16.337Z,3.40
2019-01-02T11:57:44.933Z,2.90
2019-01-02T12:00:16.902Z,3.40
2019-01-02T12:02:45.622Z,3.73
2019-01-02T12:05:14.234Z,3.30
2019-01-02T12:07:43.089Z,3.17
2019-01-02T12:10:12.430Z,3.60
2019-01-02T12:12:41.109Z,3.50
2019-01-02T12:15:11.818Z,3.13
2019-01-02T12:17:40.425Z,2.87
2019-01-02T12:20:10.347Z,2.57
2019-01-02T12:22:39.352Z,2.67
2019-01-02T12:25:07.934Z,2.73
2019-01-02T12:27:36.602Z,3.60
2019-01-02T12:30:08.498Z,4.47
2019-01-02T12:32:37.159Z,4.37
2019-01-02T12:35:05.926Z,3.60
2019-01-02T12:37:34.538Z,4.00
2019-01-02T12:40:03.210Z,5.13
2019-01-02T12:42:32.135Z,3.97
2019-01-02T12:45:01.053Z,4.30
2019-01-02T12:47:29.686Z,5.33
2019-01-02T12:49:58.389Z,4.23
2019-01-02T12:52:27.069Z,4.93
2019-01-02T12:54:55.719Z,4.80
2019-01-02T12:57:24.289Z,4.00
2019-01-02T12:59:52.933Z,4.00
2019-01-02T13:02:45.041Z,2.27
2019-01-02T13:05:35.246Z,1.50
2019-01-02T13:08:58.990Z,1.83
2019-01-02T13:11:47.188Z,2.40
2019-01-02T13:14:34.855Z,2.17
2019-01-02T13:17:20.449Z,2.63
2019-01-02T13:20:27.958Z,2.43
2019-01-02T13:23:03.749Z,2.37
2019-01-02T13:25:53.322Z,3.27
2019-01-02T13:28:50.285Z,2.60
2019-01-02T13:32:12.318Z,2.80
2019-01-02T13:35:14.474Z,3.33
2019-01-02T13:38:22.289Z,2.53
2019-01-02T13:41:10.198Z,2.13
2019-01-02T13:44:06.009Z,2.50
2019-01-02T13:47:00.456Z,2.30
2019-01-02T13:50:10.554Z,2.20
2019-01-02T13:52:39.626Z,2.43
2019-01-02T13:55:12.769Z,2.17
2019-01-02T13:57:41.676Z,1.77
2019-01-02T14:00:10.349Z,2.47
2019-01-02T14:02:39.209Z,2.10
2019-01-02T14:05:10.449Z,1.90
2019-01-02T14:07:39.125Z,3.10
2019-01-02T14:10:07.827Z,1.80
2019-01-02T14:12:36.473Z,2.47
2019-01-02T14:15:05.327Z,1.93
2019-01-02T14:17:33.951Z,2.30
2019-01-02T14:20:02.542Z,3.10
2019-01-02T14:22:31.254Z,2.37
2019-01-02T14:24:59.900Z,2.83
2019-01-02T14:27:28.484Z,2.03
2019-01-02T14:29:57.101Z,2.67
2019-01-02T14:32:25.753Z,2.37
2019-01-02T14:34:54.346Z,2.60
2019-01-02T14:37:23.097Z,2.67
2019-01-02T14:39:51.717Z,2.37
2019-01-02T14:42:20.386Z,2.10
2019-01-02T14:44:48.997Z,3.10
2019-01-02T14:47:17.653Z,3.07
2019-01-02T14:49:46.238Z,3.40
2019-01-02T14:52:14.849Z,2.37
2019-01-02T14:54:43.533Z,2.50
2019-01-02T14:57:12.582Z,3.00
2019-01-02T14:59:41.210Z,1.60
2019-01-02T15:02:09.884Z,1.87
2019-01-02T15:04:38.560Z,1.80
2019-01-02T15:07:07.166Z,1.97
2019-01-02T15:09:35.829Z,1.80
2019-01-02T15:12:04.438Z,1.60
2019-01-02T15:14:33.121Z,1.93
2019-01-02T15:17:02.025Z,1.67
2019-01-02T15:19:30.666Z,2.27
2019-01-02T15:22:04.721Z,2.60
2019-01-02T15:24:29.842Z,2.70
2019-01-02T15:26:58.465Z,3.70
2019-01-02T15:29:27.214Z,3.30
2019-01-02T15:31:56.073Z,2.27
2019-01-02T15:34:24.721Z,2.10
2019-01-02T15:36:53.345Z,2.23
2019-01-02T15:39:22.264Z,2.63
2019-01-02T15:41:50.988Z,3.00
2019-01-02T15:44:19.602Z,2.27
2019-01-02T15:46:48.588Z,1.83
2019-01-02T15:49:17.626Z,1.90
2019-01-02T15:51:46.511Z,2.77
2019-01-02T15:54:15.130Z,2.07
2019-01-02T15:56:43.733Z,2.20
2019-01-02T15:59:12.333Z,2.07
2019-01-02T16:01:41.000Z,2.27
2019-01-02T16:04:09.665Z,2.37
2019-01-02T16:06:38.275Z,2.13
2019-01-02T16:09:07.828Z,1.70
2019-01-02T16:11:37.928Z,2.53
2019-01-02T16:14:06.685Z,1.90
2019-01-02T16:16:35.341Z,2.50
2019-01-02T16:19:03.946Z,2.30
2019-01-02T16:21:32.664Z,2.50
2019-01-02T16:24:01.566Z,2.10
2019-01-02T16:26:30.205Z,2.80
2019-01-02T16:28:58.905Z,2.20
2019-01-02T16:31:28.298Z,2.60
2019-01-02T16:33:56.969Z,2.40
2019-01-02T16:36:25.579Z,3.03
2019-01-02T16:38:54.253Z,2.83
2019-01-02T16:41:22.958Z,4.00
2019-01-02T16:43:51.654Z,2.27
2019-01-02T16:46:20.295Z,2.83
2019-01-02T16:48:48.878Z,1.83
2019-01-02T16:51:17.485Z,2.17
2019-01-02T16:53:46.148Z,2.33
2019-01-02T16:56:14.969Z,2.03
2019-01-02T16:58:43.637Z,1.90
2019-01-02T17:01:12.312Z,2.03
2019-01-02T17:03:40.993Z,3.17
2019-01-02T17:06:09.718Z,2.53
2019-01-02T17:08:38.369Z,2.57
2019-01-02T17:11:07.052Z,4.00
2019-01-02T17:13:35.926Z,3.50
2019-01-02T17:16:04.522Z,4.60
2019-01-02T17:18:33.101Z,3.87
2019-01-02T17:21:02.000Z,4.07
2019-01-02T17:23:30.582Z,4.00
2019-01-02T17:25:59.265Z,4.33
2019-01-02T17:28:27.981Z,4.40
2019-01-02T17:30:56.643Z,3.90
2019-01-02T17:33:25.345Z,4.23
2019-01-02T17:35:53.954Z,4.00
2019-01-02T17:38:22.885Z,3.83
2019-01-02T17:40:51.516Z,3.60
2019-01-02T17:43:20.206Z,4.00
2019-01-02T17:45:48.849Z,3.50
2019-01-02T17:48:17.784Z,3.90
2019-01-02T17:50:46.750Z,3.20
2019-01-02T17:53:15.666Z,2.80
2019-01-02T17:55:44.297Z,2.50
2019-01-02T17:58:13.209Z,2.10
2019-01-02T18:00:41.778Z,3.07
2019-01-02T18:03:10.353Z,2.30
2019-01-02T18:05:38.961Z,2.53
2019-01-02T18:08:07.997Z,2.47
2019-01-02T18:10:36.617Z,2.83
2019-01-02T18:13:05.262Z,3.10
2019-01-02T18:15:33.893Z,3.10
2019-01-02T18:18:02.523Z,3.13
2019-01-02T18:20:31.477Z,2.83
2019-01-02T18:23:00.421Z,3.30
2019-01-02T18:25:29.041Z,2.40
2019-01-02T18:27:57.649Z,2.70
2019-01-02T18:30:26.310Z,2.80
2019-01-02T18:32:54.923Z,2.50
2019-01-02T18:35:23.617Z,2.50
2019-01-02T18:37:52.263Z,2.20
2019-01-02T18:40:21.003Z,2.10
2019-01-02T18:42:49.649Z,2.43
2019-01-02T18:45:18.329Z,2.20
2019-01-02T18:47:47.027Z,2.30
2019-01-02T18:50:15.718Z,2.20
2019-01-02T18:52:44.373Z,2.73
2019-01-02T18:55:12.986Z,2.17
2019-01-02T18:57:41.678Z,2.10
2019-01-02T19:00:12.197Z,2.10
2019-01-02T19:02:40.854Z,2.20
2019-01-02T19:05:09.466Z,2.60
2019-01-02T19:07:38.123Z,2.80
2019-01-02T19:10:06.847Z,3.03
2019-01-02T19:12:35.517Z,3.13
2019-01-02T19:15:04.434Z,3.80
2019-01-02T19:17:33.071Z,3.70
2019-01-02T19:20:01.694Z,2.83
2019-01-02T19:22:30.350Z,4.10
2019-01-02T19:24:58.929Z,3.73
2019-01-02T19:27:27.738Z,3.40
2019-01-02T19:29:56.788Z,3.43
2019-01-02T19:32:25.381Z,2.63
2019-01-02T19:34:54.142Z,2.93
2019-01-02T19:37:22.761Z,3.30
2019-01-02T19:39:52.689Z,4.17
2019-01-02T19:42:21.382Z,4.50
2019-01-02T19:44:50.065Z,3.60
2019-01-02T19:47:18.749Z,4.63
2019-01-02T19:49:47.445Z,5.77
2019-01-02T19:52:16.497Z,4.77
2019-01-02T19:54:45.477Z,4.80
2019-01-02T19:57:14.694Z,4.40
2019-01-02T19:59:43.438Z,3.97
2019-01-02T20:02:12.033Z,3.50
2019-01-02T20:04:40.710Z,3.30
2019-01-02T20:07:09.341Z,3.93
2019-01-02T20:09:37.937Z,3.03
2019-01-02T20:12:06.629Z,3.13
2019-01-02T20:14:35.286Z,2.83
2019-01-02T20:17:03.990Z,3.10
2019-01-02T20:19:32.689Z,2.70
2019-01-02T20:22:01.774Z,2.93
2019-01-02T20:24:30.813Z,3.00
2019-01-02T20:27:00.017Z,2.73
2019-01-02T20:29:28.634Z,2.23
2019-01-02T20:31:57.213Z,2.27
2019-01-02T20:34:25.823Z,2.87
2019-01-02T20:36:54.489Z,3.17
2019-01-02T20:39:23.068Z,4.17
2019-01-02T20:41:51.698Z,4.10
2019-01-02T20:44:20.449Z,3.93
2019-01-02T20:46:49.342Z,3.10
2019-01-02T20:49:18.461Z,2.93
2019-01-02T20:51:47.842Z,2.37
2019-01-02T20:54:16.917Z,2.63
2019-01-02T20:56:45.531Z,4.03
2019-01-02T20:59:14.195Z,3.40
2019-01-02T21:01:42.757Z,2.13
2019-01-02T21:04:11.390Z,2.63
2019-01-02T21:06:40.295Z,2.03
2019-01-02T21:09:09.101Z,2.10
2019-01-02T21:11:37.749Z,2.23
2019-01-02T21:14:06.401Z,1.97
2019-01-02T21:16:34.985Z,2.27
2019-01-02T21:19:03.833Z,2.60
2019-01-02T21:21:32.482Z,1.93
2019-01-02T21:24:01.162Z,2.03
2019-01-02T21:26:29.870Z,2.33
2019-01-02T21:28:58.518Z,2.37
2019-01-02T21:31:27.105Z,2.20
2019-01-02T21:33:55.717Z,2.13
2019-01-02T21:36:24.378Z,2.70
2019-01-02T21:38:53.049Z,2.37
2019-01-02T21:41:21.678Z,3.00
2019-01-02T21:43:50.339Z,3.00
2019-01-02T21:46:19.008Z,2.80
2019-01-02T21:48:47.658Z,2.57
2019-01-02T21:51:16.525Z,3.10
2019-01-02T21:53:45.165Z,2.87
2019-01-02T21:56:13.906Z,2.90
2019-01-02T21:58:42.843Z,2.70
2019-01-02T22:01:11.438Z,2.50
2019-01-02T22:03:40.139Z,2.80
2019-01-02T22:06:08.797Z,2.60
2019-01-02T22:08:37.377Z,2.33
2019-01-02T22:11:06.237Z,3.40
2019-01-02T22:13:34.849Z,2.80
2019-01-02T22:16:03.430Z,2.90
2019-01-02T22:18:32.054Z,2.63
2019-01-02T22:21:01.029Z,2.60
2019-01-02T22:23:30.317Z,2.30
2019-01-02T22:25:58.930Z,2.50
2019-01-02T22:28:27.582Z,2.10
2019-01-02T22:30:56.157Z,3.20
2019-01-02T22:33:24.794Z,3.03
2019-01-02T22:35:53.438Z,2.70
2019-01-02T22:38:22.013Z,2.20
2019-01-02T22:40:50.642Z,2.57
2019-01-02T22:43:19.298Z,2.63
2019-01-02T22:45:47.964Z,2.40
2019-01-02T22:48:16.582Z,2.73
2019-01-02T22:50:45.254Z,2.60
2019-01-02T22:53:13.923Z,2.13
2019-01-02T22:55:42.530Z,2.10
2019-01-02T22:58:11.198Z,2.13
2019-01-02T23:01:03.582Z,1.80
2019-01-02T23:03:49.756Z,1.50
2019-01-02T23:06:35.998Z,1.67
2019-01-02T23:09:25.447Z,1.87
2019-01-02T23:12:16.443Z,1.80
2019-01-02T23:14:59.097Z,1.87
2019-01-02T23:18:03.249Z,1.73
2019-01-02T23:20:49.165Z,1.70
2019-01-02T23:23:35.438Z,2.10
2019-01-02T23:26:32.283Z,1.60
2019-01-02T23:29:18.580Z,2.13
2019-01-02T23:32:13.897Z,1.87
2019-01-02T23:35:04.708Z,1.90
2019-01-02T23:37:51.246Z,1.60
2019-01-02T23:40:53.870Z,1.70
2019-01-02T23:43:44.560Z,1.60
2019-01-02T23:46:30.815Z,2.00
2019-01-02T23:49:11.913Z,2.67
2019-01-02T23:52:05.538Z,1.77
2019-01-02T23:55:03.739Z,1.60
2019-01-02T23:57:51.473Z,1.53
